Babcock, Wisconsin
Current Conditions -  °F | °C
As of 9:54 PM on Friday 19 Dec 2014 (Local Time) from KISW Reporting Station
Overcast Overcast  
Wind Chill: 22°   Ceiling: 8000
Heat Index: 22°   Visibility: 9mi
Dew Point: 19°   Wind: 0mph
Humidity: 89%   Direction: NA
Pressure: 30.24"   Gusts: NA
Location:  44.3°N, 90.11°W
Report Text: KISW 200354Z AUTO 00000KT 9SM OVC080 M06/M07 A3024 RMK AO2 SLP259 T10561072
Loading
Personal Weather Stations






























Interactive Weather Map New forecast layout! Learn more

10-Day Weather Forecast

Advertisements
Track Severe Weather on mobile